sensor_id;sensor_type;location;lat;lon;timestamp;pressure;altitude;pressure_sealevel;temperature;humidity
21574;BME280;10948;48.706;9.258;2023-05-20T00:02:22;97847.31;;;12.73;100.00
21574;BME280;10948;48.706;9.258;2023-05-20T00:04:48;97840.84;;;12.79;100.00
21574;BME280;10948;48.706;9.258;2023-05-20T00:07:13;97855.25;;;12.84;100.00
21574;BME280;10948;48.706;9.258;2023-05-20T00:09:38;97851.91;;;12.70;100.00
21574;BME280;10948;48.706;9.258;2023-05-20T00:12:04;97842.63;;;12.91;100.00
21574;BME280;10948;48.706;9.258;2023-05-20T00:14:29;97839.38;;;12.87;100.00
21574;BME280;10948;48.706;9.258;2023-05-20T00:16:54;97848.56;;;12.93;100.00
21574;BME280;10948;48.706;9.258;2023-05-20T00:19:20;97833.53;;;12.84;100.00
21574;BME280;10948;48.706;9.258;2023-05-20T00:21:45;97836.25;;;12.95;100.00
21574;BME280;10948;48.706;9.258;2023-05-20T00:24:10;97827.50;;;13.08;100.00
21574;BME280;10948;48.706;9.258;2023-05-20T00:26:36;97831.03;;;12.95;100.00
21574;BME280;10948;48.706;9.258;2023-05-20T00:29:01;97827.28;;;12.99;100.00
21574;BME280;10948;48.706;9.258;2023-05-20T00:31:26;97828.34;;;13.09;100.00
21574;BME280;10948;48.706;9.258;2023-05-20T00:33:51;97825.00;;;13.19;100.00
21574;BME280;10948;48.706;9.258;2023-05-20T00:36:17;97831.44;;;13.14;100.00
21574;BME280;10948;48.706;9.258;2023-05-20T00:38:42;97830.41;;;13.16;100.00
21574;BME280;10948;48.706;9.258;2023-05-20T00:41:07;97830.00;;;13.22;100.00
21574;BME280;10948;48.706;9.258;2023-05-20T00:43:32;97824.78;;;13.10;100.00
21574;BME280;10948;48.706;9.258;2023-05-20T00:45:57;97834.59;;;13.19;100.00
21574;BME280;10948;48.706;9.258;2023-05-20T00:48:24;97838.25;;;13.29;100.00
21574;BME280;10948;48.706;9.258;2023-05-20T00:50:49;97829.59;;;13.16;100.00
21574;BME280;10948;48.706;9.258;2023-05-20T00:53:16;97827.91;;;13.27;100.00
21574;BME280;10948;48.706;9.258;2023-05-20T00:55:42;97825.38;;;13.26;100.00
21574;BME280;10948;48.706;9.258;2023-05-20T00:58:07;97822.66;;;13.15;100.00
21574;BME280;10948;48.706;9.258;2023-05-20T01:00:32;97812.22;;;13.15;100.00
21574;BME280;10948;48.706;9.258;2023-05-20T01:02:58;97816.72;;;13.13;100.00
21574;BME280;10948;48.706;9.258;2023-05-20T01:05:23;97823.63;;;13.26;100.00
21574;BME280;10948;48.706;9.258;2023-05-20T01:07:48;97814.53;;;13.19;100.00
21574;BME280;10948;48.706;9.258;2023-05-20T01:10:14;97817.97;;;13.20;100.00
21574;BME280;10948;48.706;9.258;2023-05-20T01:12:43;97821.81;;;13.27;100.00
21574;BME280;10948;48.706;9.258;2023-05-20T01:15:10;97816.59;;;13.27;100.00
21574;BME280;10948;48.706;9.258;2023-05-20T01:17:41;97814.22;;;13.24;100.00
21574;BME280;10948;48.706;9.258;2023-05-20T01:20:08;97810.13;;;13.20;100.00
21574;BME280;10948;48.706;9.258;2023-05-20T01:22:38;97812.75;;;13.20;100.00
21574;BME280;10948;48.706;9.258;2023-05-20T01:25:03;97802.81;;;13.25;100.00
21574;BME280;10948;48.706;9.258;2023-05-20T01:27:29;97801.75;;;13.15;100.00
21574;BME280;10948;48.706;9.258;2023-05-20T01:29:55;97807.63;;;13.06;100.00
21574;BME280;10948;48.706;9.258;2023-05-20T01:32:25;97802.41;;;13.06;100.00
21574;BME280;10948;48.706;9.258;2023-05-20T01:34:51;97803.25;;;13.06;100.00
21574;BME280;10948;48.706;9.258;2023-05-20T01:37:18;97797.63;;;13.12;100.00
21574;BME280;10948;48.706;9.258;2023-05-20T01:39:43;97804.06;;;13.07;100.00
21574;BME280;10948;48.706;9.258;2023-05-20T01:42:09;97800.31;;;12.98;100.00
21574;BME280;10948;48.706;9.258;2023-05-20T01:44:35;97799.06;;;12.79;100.00
21574;BME280;10948;48.706;9.258;2023-05-20T01:47:01;97796.88;;;12.98;100.00
21574;BME280;10948;48.706;9.258;2023-05-20T01:49:26;97800.72;;;12.92;100.00
21574;BME280;10948;48.706;9.258;2023-05-20T01:51:51;97793.94;;;12.90;100.00
21574;BME280;10948;48.706;9.258;2023-05-20T01:54:17;97793.56;;;12.96;100.00
21574;BME280;10948;48.706;9.258;2023-05-20T01:56:42;97793.59;;;12.82;100.00
21574;BME280;10948;48.706;9.258;2023-05-20T01:59:07;97790.59;;;12.75;100.00
21574;BME280;10948;48.706;9.258;2023-05-20T02:01:33;97794.25;;;12.73;100.00
21574;BME280;10948;48.706;9.258;2023-05-20T02:03:58;97792.69;;;12.70;100.00
21574;BME280;10948;48.706;9.258;2023-05-20T02:06:23;97793.31;;;12.61;100.00
21574;BME280;10948;48.706;9.258;2023-05-20T02:08:48;97791.09;;;12.68;100.00
21574;BME280;10948;48.706;9.258;2023-05-20T02:11:14;97784.31;;;12.53;100.00
21574;BME280;10948;48.706;9.258;2023-05-20T02:13:39;97791.50;;;12.62;100.00
21574;BME280;10948;48.706;9.258;2023-05-20T02:16:05;97786.94;;;12.53;100.00
21574;BME280;10948;48.706;9.258;2023-05-20T02:18:30;97789.41;;;12.42;100.00
21574;BME280;10948;48.706;9.258;2023-05-20T02:21:00;97790.97;;;12.32;100.00
21574;BME280;10948;48.706;9.258;2023-05-20T02:23:25;97795.06;;;12.36;100.00
21574;BME280;10948;48.706;9.258;2023-05-20T02:25:50;97788.16;;;12.35;100.00
21574;BME280;10948;48.706;9.258;2023-05-20T02:28:16;97796.09;;;12.46;100.00
21574;BME280;10948;48.706;9.258;2023-05-20T02:30:41;97786.94;;;12.53;100.00
21574;BME280;10948;48.706;9.258;2023-05-20T02:33:07;97787.16;;;12.50;100.00
21574;BME280;10948;48.706;9.258;2023-05-20T02:35:33;97796.75;;;12.62;100.00
21574;BME280;10948;48.706;9.258;2023-05-20T02:37:59;97793.59;;;12.44;100.00
21574;BME280;10948;48.706;9.258;2023-05-20T02:40:24;97790.59;;;12.63;100.00
21574;BME280;10948;48.706;9.258;2023-05-20T02:42:49;97795.59;;;12.53;100.00
21574;BME280;10948;48.706;9.258;2023-05-20T02:45:15;97798.09;;;12.30;100.00
21574;BME280;10948;48.706;9.258;2023-05-20T02:47:40;97797.88;;;12.33;100.00
21574;BME280;10948;48.706;9.258;2023-05-20T02:50:05;97791.09;;;12.43;100.00
21574;BME280;10948;48.706;9.258;2023-05-20T02:52:31;97804.25;;;12.54;100.00
21574;BME280;10948;48.706;9.258;2023-05-20T02:54:57;97797.94;;;12.31;100.00
21574;BME280;10948;48.706;9.258;2023-05-20T02:57:22;97795.69;;;12.52;100.00
21574;BME280;10948;48.706;9.258;2023-05-20T02:59:47;97798.09;;;12.55;100.00
21574;BME280;10948;48.706;9.258;2023-05-20T03:02:12;97805.59;;;12.47;100.00
21574;BME280;10948;48.706;9.258;2023-05-20T03:04:38;97797.25;;;12.42;100.00
21574;BME280;10948;48.706;9.258;2023-05-20T03:07:05;97791.75;;;12.46;100.00
21574;BME280;10948;48.706;9.258;2023-05-20T03:09:31;97793.19;;;12.38;100.00
21574;BME280;10948;48.706;9.258;2023-05-20T03:11:57;97792.56;;;12.34;100.00
21574;BME280;10948;48.706;9.258;2023-05-20T03:14:22;97793.78;;;12.29;100.00
21574;BME280;10948;48.706;9.258;2023-05-20T03:16:47;97798.09;;;12.30;100.00
21574;BME280;10948;48.706;9.258;2023-05-20T03:19:12;97799.00;;;12.29;100.00
21574;BME280;10948;48.706;9.258;2023-05-20T03:21:37;97793.38;;;12.35;100.00
21574;BME280;10948;48.706;9.258;2023-05-20T03:24:03;97781.66;;;12.15;100.00
21574;BME280;10948;48.706;9.258;2023-05-20T03:26:28;97788.94;;;12.10;100.00
21574;BME280;10948;48.706;9.258;2023-05-20T03:28:54;97789.97;;;12.08;100.00
21574;BME280;10948;48.706;9.258;2023-05-20T03:31:19;97790.72;;;12.10;100.00
21574;BME280;10948;48.706;9.258;2023-05-20T03:33:45;97790.44;;;12.27;100.00
21574;BME280;10948;48.706;9.258;2023-05-20T03:36:10;97797.78;;;12.08;100.00
21574;BME280;10948;48.706;9.258;2023-05-20T03:38:35;97800.41;;;12.08;100.00
21574;BME280;10948;48.706;9.258;2023-05-20T03:41:00;97802.91;;;11.97;100.00
21574;BME280;10948;48.706;9.258;2023-05-20T03:43:26;97810.34;;;12.15;100.00
21574;BME280;10948;48.706;9.258;2023-05-20T03:45:52;97804.66;;;12.23;100.00
21574;BME280;10948;48.706;9.258;2023-05-20T03:48:18;97804.81;;;12.20;100.00
21574;BME280;10948;48.706;9.258;2023-05-20T03:50:44;97800.69;;;12.30;100.00
21574;BME280;10948;48.706;9.258;2023-05-20T03:53:10;97802.34;;;12.31;100.00
21574;BME280;10948;48.706;9.258;2023-05-20T03:55:35;97800.28;;;12.36;100.00
21574;BME280;10948;48.706;9.258;2023-05-20T03:58:00;97796.91;;;12.34;100.00
21574;BME280;10948;48.706;9.258;2023-05-20T04:00:25;97794.44;;;12.45;100.00
21574;BME280;10948;48.706;9.258;2023-05-20T04:02:51;97793.63;;;12.57;100.00
21574;BME280;10948;48.706;9.258;2023-05-20T04:05:17;97800.59;;;12.44;100.00
21574;BME280;10948;48.706;9.258;2023-05-20T04:07:42;97796.31;;;12.68;100.00
21574;BME280;10948;48.706;9.258;2023-05-20T04:10:08;97806.13;;;12.64;100.00
21574;BME280;10948;48.706;9.258;2023-05-20T04:12:33;97801.78;;;12.65;100.00
21574;BME280;10948;48.706;9.258;2023-05-20T04:15:00;97801.03;;;12.75;100.00
21574;BME280;10948;48.706;9.258;2023-05-20T04:17:29;97798.34;;;12.77;100.00
21574;BME280;10948;48.706;9.258;2023-05-20T04:19:54;97793.59;;;12.82;100.00
21574;BME280;10948;48.706;9.258;2023-05-20T04:22:20;97786.09;;;12.90;100.00
21574;BME280;10948;48.706;9.258;2023-05-20T04:24:46;97791.94;;;12.93;100.00
21574;BME280;10948;48.706;9.258;2023-05-20T04:27:11;97792.06;;;13.04;100.00
21574;BME280;10948;48.706;9.258;2023-05-20T04:29:36;97789.31;;;13.18;100.00
21574;BME280;10948;48.706;9.258;2023-05-20T04:32:01;97782.75;;;13.13;100.00
21574;BME280;10948;48.706;9.258;2023-05-20T04:34:28;97782.31;;;13.19;100.00
21574;BME280;10948;48.706;9.258;2023-05-20T04:36:53;97780.66;;;13.18;100.00
21574;BME280;10948;48.706;9.258;2023-05-20T04:39:19;97782.00;;;13.23;100.00
21574;BME280;10948;48.706;9.258;2023-05-20T04:41:44;97776.97;;;13.33;100.00
21574;BME280;10948;48.706;9.258;2023-05-20T04:44:11;97782.28;;;13.31;100.00
21574;BME280;10948;48.706;9.258;2023-05-20T04:46:37;97777.47;;;13.38;100.00
21574;BME280;10948;48.706;9.258;2023-05-20T04:49:03;97784.13;;;13.42;100.00
21574;BME280;10948;48.706;9.258;2023-05-20T04:51:29;97782.22;;;13.56;100.00
21574;BME280;10948;48.706;9.258;2023-05-20T04:53:54;97777.34;;;13.52;100.00
21574;BME280;10948;48.706;9.258;2023-05-20T04:56:19;97777.00;;;13.56;100.00
21574;BME280;10948;48.706;9.258;2023-05-20T04:58:44;97782.94;;;13.58;100.00
21574;BME280;10948;48.706;9.258;2023-05-20T05:01:10;97787.72;;;13.64;100.00
21574;BME280;10948;48.706;9.258;2023-05-20T05:03:35;97783.63;;;13.73;100.00
21574;BME280;10948;48.706;9.258;2023-05-20T05:06:00;97778.81;;;13.79;100.00
21574;BME280;10948;48.706;9.258;2023-05-20T05:08:26;97786.97;;;13.98;100.00
21574;BME280;10948;48.706;9.258;2023-05-20T05:10:51;97780.66;;;14.01;100.00
21574;BME280;10948;48.706;9.258;2023-05-20T05:13:16;97777.59;;;14.07;100.00
21574;BME280;10948;48.706;9.258;2023-05-20T05:15:42;97777.09;;;14.02;100.00
21574;BME280;10948;48.706;9.258;2023-05-20T05:18:07;97779.72;;;14.02;100.00
21574;BME280;10948;48.706;9.258;2023-05-20T05:20:32;97768.81;;;14.08;100.00
21574;BME280;10948;48.706;9.258;2023-05-20T05:22:57;97771.81;;;14.38;100.00
21574;BME280;10948;48.706;9.258;2023-05-20T05:25:22;97765.25;;;14.32;100.00
21574;BME280;10948;48.706;9.258;2023-05-20T05:27:48;97771.56;;;14.41;100.00
21574;BME280;10948;48.706;9.258;2023-05-20T05:30:14;97763.03;;;14.61;100.00
21574;BME280;10948;48.706;9.258;2023-05-20T05:32:39;97770.28;;;14.57;100.00
21574;BME280;10948;48.706;9.258;2023-05-20T05:35:05;97758.66;;;14.83;100.00
21574;BME280;10948;48.706;9.258;2023-05-20T05:37:30;97759.50;;;14.84;100.00
21574;BME280;10948;48.706;9.258;2023-05-20T05:39:55;97760.19;;;14.75;100.00
21574;BME280;10948;48.706;9.258;2023-05-20T05:42:20;97756.03;;;14.61;100.00
21574;BME280;10948;48.706;9.258;2023-05-20T05:44:46;97755.69;;;14.88;100.00
21574;BME280;10948;48.706;9.258;2023-05-20T05:47:12;97751.16;;;15.23;100.00
21574;BME280;10948;48.706;9.258;2023-05-20T05:49:37;97745.06;;;15.44;100.00
21574;BME280;10948;48.706;9.258;2023-05-20T05:52:02;97747.66;;;15.55;100.00
21574;BME280;10948;48.706;9.258;2023-05-20T05:54:27;97749.59;;;15.42;100.00
21574;BME280;10948;48.706;9.258;2023-05-20T05:56:53;97740.81;;;15.32;100.00
21574;BME280;10948;48.706;9.258;2023-05-20T05:59:18;97749.50;;;15.33;100.00
21574;BME280;10948;48.706;9.258;2023-05-20T06:01:44;97749.13;;;15.48;100.00
21574;BME280;10948;48.706;9.258;2023-05-20T06:04:09;97751.41;;;15.42;100.00
21574;BME280;10948;48.706;9.258;2023-05-20T06:06:35;97753.06;;;15.43;100.00
21574;BME280;10948;48.706;9.258;2023-05-20T06:09:01;97754.25;;;15.39;100.00
21574;BME280;10948;48.706;9.258;2023-05-20T06:11:26;97754.69;;;15.66;100.00
21574;BME280;10948;48.706;9.258;2023-05-20T06:13:51;97745.34;;;15.73;100.00
21574;BME280;10948;48.706;9.258;2023-05-20T06:16:16;97747.75;;;15.76;100.00
21574;BME280;10948;48.706;9.258;2023-05-20T06:18:42;97743.88;;;15.91;100.00
21574;BME280;10948;48.706;9.258;2023-05-20T06:21:07;97742.03;;;16.02;100.00
21574;BME280;10948;48.706;9.258;2023-05-20T06:23:33;97739.25;;;16.15;100.00
21574;BME280;10948;48.706;9.258;2023-05-20T06:25:58;97737.34;;;16.58;99.03
21574;BME280;10948;48.706;9.258;2023-05-20T06:28:24;97743.41;;;16.79;97.47
21574;BME280;10948;48.706;9.258;2023-05-20T06:30:49;97741.31;;;17.02;95.42
21574;BME280;10948;48.706;9.258;2023-05-20T06:33:14;97730.81;;;17.02;95.25
21574;BME280;10948;48.706;9.258;2023-05-20T06:35:40;97738.53;;;16.95;96.22
21574;BME280;10948;48.706;9.258;2023-05-20T06:38:05;97736.06;;;17.02;95.01
21574;BME280;10948;48.706;9.258;2023-05-20T06:40:30;97735.59;;;17.27;93.50
21574;BME280;10948;48.706;9.258;2023-05-20T06:42:55;97725.50;;;17.32;93.58
21574;BME280;10948;48.706;9.258;2023-05-20T06:45:21;97728.25;;;17.21;93.12
21574;BME280;10948;48.706;9.258;2023-05-20T06:47:46;97729.03;;;17.42;91.15
21574;BME280;10948;48.706;9.258;2023-05-20T06:50:13;97730.19;;;18.06;86.77
21574;BME280;10948;48.706;9.258;2023-05-20T06:52:38;97728.28;;;18.08;84.74
21574;BME280;10948;48.706;9.258;2023-05-20T06:55:03;97719.94;;;18.51;80.51
21574;BME280;10948;48.706;9.258;2023-05-20T06:57:29;97720.19;;;18.57;81.34
21574;BME280;10948;48.706;9.258;2023-05-20T06:59:54;97722.69;;;19.41;80.34
21574;BME280;10948;48.706;9.258;2023-05-20T07:02:20;97709.06;;;19.81;74.20
21574;BME280;10948;48.706;9.258;2023-05-20T07:04:45;97710.97;;;19.88;74.76
21574;BME280;10948;48.706;9.258;2023-05-20T07:07:11;97709.56;;;19.49;74.96
21574;BME280;10948;48.706;9.258;2023-05-20T07:09:36;97708.50;;;18.69;78.04
21574;BME280;10948;48.706;9.258;2023-05-20T07:12:01;97701.91;;;18.27;78.86
21574;BME280;10948;48.706;9.258;2023-05-20T07:14:27;97705.06;;;18.59;81.42
21574;BME280;10948;48.706;9.258;2023-05-20T07:16:52;97697.16;;;18.50;79.74
21574;BME280;10948;48.706;9.258;2023-05-20T07:19:18;97692.91;;;18.39;79.10
21574;BME280;10948;48.706;9.258;2023-05-20T07:21:43;97691.59;;;18.62;77.49
21574;BME280;10948;48.706;9.258;2023-05-20T07:24:08;97700.78;;;19.31;75.30
21574;BME280;10948;48.706;9.258;2023-05-20T07:26:34;97698.28;;;19.74;70.19
21574;BME280;10948;48.706;9.258;2023-05-20T07:29:01;97694.91;;;24.34;56.35
21574;BME280;10948;48.706;9.258;2023-05-20T07:31:26;97693.03;;;24.94;51.86
21574;BME280;10948;48.706;9.258;2023-05-20T07:33:51;97697.78;;;20.23;62.65
21574;BME280;10948;48.706;9.258;2023-05-20T07:36:16;97700.25;;;19.28;71.07
21574;BME280;10948;48.706;9.258;2023-05-20T07:38:42;97699.66;;;18.51;75.44
21574;BME280;10948;48.706;9.258;2023-05-20T07:41:07;97696.13;;;20.91;66.68
21574;BME280;10948;48.706;9.258;2023-05-20T07:43:32;97695.72;;;19.20;71.90
21574;BME280;10948;48.706;9.258;2023-05-20T07:45:57;97692.78;;;19.23;71.67
21574;BME280;10948;48.706;9.258;2023-05-20T07:48:23;97682.19;;;18.50;75.12
21574;BME280;10948;48.706;9.258;2023-05-20T07:50:48;97684.63;;;18.80;75.52
21574;BME280;10948;48.706;9.258;2023-05-20T07:53:13;97667.03;;;24.67;56.30
21574;BME280;10948;48.706;9.258;2023-05-20T07:55:38;97669.16;;;23.59;56.54
21574;BME280;10948;48.706;9.258;2023-05-20T07:58:04;97661.34;;;20.60;62.11
21574;BME280;10948;48.706;9.258;2023-05-20T08:00:29;97683.09;;;19.41;72.09
21574;BME280;10948;48.706;9.258;2023-05-20T08:02:55;97686.56;;;18.69;75.90
21574;BME280;10948;48.706;9.258;2023-05-20T08:05:20;97691.13;;;18.30;77.99
21574;BME280;10948;48.706;9.258;2023-05-20T08:07:46;97684.69;;;18.61;77.76
21574;BME280;10948;48.706;9.258;2023-05-20T08:10:11;97677.75;;;18.60;79.04
21574;BME280;10948;48.706;9.258;2023-05-20T08:12:37;97681.97;;;18.34;78.92
21574;BME280;10948;48.706;9.258;2023-05-20T08:15:02;97683.19;;;18.11;79.91
21574;BME280;10948;48.706;9.258;2023-05-20T08:17:28;97685.81;;;18.21;80.06
21574;BME280;10948;48.706;9.258;2023-05-20T08:19:53;97702.75;;;18.37;78.64
21574;BME280;10948;48.706;9.258;2023-05-20T08:22:18;97704.56;;;18.08;79.33
21574;BME280;10948;48.706;9.258;2023-05-20T08:24:44;97693.31;;;18.25;78.47
21574;BME280;10948;48.706;9.258;2023-05-20T08:27:09;97704.09;;;18.60;75.72
21574;BME280;10948;48.706;9.258;2023-05-20T08:29:34;97699.69;;;18.23;76.62
21574;BME280;10948;48.706;9.258;2023-05-20T08:32:00;97700.22;;;18.45;76.81
21574;BME280;10948;48.706;9.258;2023-05-20T08:34:25;97698.31;;;18.38;77.14
21574;BME280;10948;48.706;9.258;2023-05-20T08:36:50;97699.38;;;18.64;77.33
21574;BME280;10948;48.706;9.258;2023-05-20T08:39:16;97699.41;;;18.54;75.71
21574;BME280;10948;48.706;9.258;2023-05-20T08:41:41;97703.25;;;19.06;75.69
21574;BME280;10948;48.706;9.258;2023-05-20T08:44:06;97688.03;;;22.31;66.80
21574;BME280;10948;48.706;9.258;2023-05-20T08:46:33;97694.69;;;24.58;53.01
21574;BME280;10948;48.706;9.258;2023-05-20T08:48:59;97694.00;;;28.19;50.19
21574;BME280;10948;48.706;9.258;2023-05-20T08:51:25;97689.88;;;21.41;58.85
21574;BME280;10948;48.706;9.258;2023-05-20T08:53:51;97689.50;;;21.28;59.93
21574;BME280;10948;48.706;9.258;2023-05-20T08:56:16;97685.06;;;22.66;57.71
21574;BME280;10948;48.706;9.258;2023-05-20T08:58:42;97684.38;;;21.76;57.70
21574;BME280;10948;48.706;9.258;2023-05-20T09:01:07;97689.56;;;31.70;41.21
21574;BME280;10948;48.706;9.258;2023-05-20T09:03:32;97674.94;;;30.88;40.71
21574;BME280;10948;48.706;9.258;2023-05-20T09:06:05;97682.44;;;27.46;45.69
21574;BME280;10948;48.706;9.258;2023-05-20T09:08:31;97680.34;;;25.10;50.86
21574;BME280;10948;48.706;9.258;2023-05-20T09:10:57;97685.38;;;22.31;56.25
21574;BME280;10948;48.706;9.258;2023-05-20T09:13:22;97685.19;;;25.65;51.30
21574;BME280;10948;48.706;9.258;2023-05-20T09:15:48;97674.66;;;26.55;49.26
21574;BME280;10948;48.706;9.258;2023-05-20T09:18:13;97678.59;;;25.03;48.53
21574;BME280;10948;48.706;9.258;2023-05-20T09:20:38;97676.28;;;24.71;51.91
21574;BME280;10948;48.706;9.258;2023-05-20T09:23:06;97669.84;;;24.65;52.56
21574;BME280;10948;48.706;9.258;2023-05-20T09:25:31;97667.31;;;24.72;52.00
21574;BME280;10948;48.706;9.258;2023-05-20T09:27:56;97678.88;;;23.97;55.14
21574;BME280;10948;48.706;9.258;2023-05-20T09:30:22;97672.63;;;23.29;54.70
21574;BME280;10948;48.706;9.258;2023-05-20T09:32:54;97677.19;;;23.43;54.90
21574;BME280;10948;48.706;9.258;2023-05-20T09:35:20;97669.00;;;24.28;51.90
21574;BME280;10948;48.706;9.258;2023-05-20T09:37:45;97673.78;;;23.27;55.27
21574;BME280;10948;48.706;9.258;2023-05-20T09:40:12;97656.19;;;22.71;57.34
21574;BME280;10948;48.706;9.258;2023-05-20T09:42:43;97667.31;;;22.67;58.33
21574;BME280;10948;48.706;9.258;2023-05-20T09:45:14;97667.84;;;22.22;58.14
21574;BME280;10948;48.706;9.258;2023-05-20T09:47:39;97664.69;;;23.21;57.49
21574;BME280;10948;48.706;9.258;2023-05-20T09:50:05;97658.16;;;22.77;57.71
21574;BME280;10948;48.706;9.258;2023-05-20T09:52:32;97659.03;;;24.96;53.65
21574;BME280;10948;48.706;9.258;2023-05-20T09:54:59;97646.44;;;24.61;50.96
21574;BME280;10948;48.706;9.258;2023-05-20T09:57:26;97650.81;;;23.72;54.72
21574;BME280;10948;48.706;9.258;2023-05-20T09:59:54;97644.69;;;25.40;51.26
21574;BME280;10948;48.706;9.258;2023-05-20T10:02:20;97639.03;;;23.67;52.68
21574;BME280;10948;48.706;9.258;2023-05-20T10:04:46;97640.38;;;24.96;52.18
21574;BME280;10948;48.706;9.258;2023-05-20T10:07:21;97632.13;;;26.33;48.31
21574;BME280;10948;48.706;9.258;2023-05-20T10:10:15;97634.94;;;23.56;53.29
21574;BME280;10948;48.706;9.258;2023-05-20T10:15:26;97628.28;;;22.83;54.45
21574;BME280;10948;48.706;9.258;2023-05-20T10:20:46;97624.50;;;24.73;52.78
21574;BME280;10948;48.706;9.258;2023-05-20T10:23:21;97622.00;;;25.30;50.02
21574;BME280;10948;48.706;9.258;2023-05-20T10:25:50;97622.97;;;24.79;51.21
21574;BME280;10948;48.706;9.258;2023-05-20T10:28:23;97617.44;;;23.92;52.25
21574;BME280;10948;48.706;9.258;2023-05-20T10:30:51;97627.31;;;24.06;53.18
21574;BME280;10948;48.706;9.258;2023-05-20T10:33:16;97623.16;;;23.81;52.34
21574;BME280;10948;48.706;9.258;2023-05-20T10:35:46;97626.91;;;22.95;55.43
21574;BME280;10948;48.706;9.258;2023-05-20T10:38:11;97617.34;;;22.78;56.24
21574;BME280;10948;48.706;9.258;2023-05-20T10:40:37;97618.53;;;24.34;52.86
21574;BME280;10948;48.706;9.258;2023-05-20T10:43:09;97618.38;;;26.08;49.02
21574;BME280;10948;48.706;9.258;2023-05-20T10:45:35;97618.53;;;24.34;51.51
21574;BME280;10948;48.706;9.258;2023-05-20T10:48:18;97606.94;;;25.08;51.44
21574;BME280;10948;48.706;9.258;2023-05-20T10:50:43;97607.22;;;27.15;46.34
21574;BME280;10948;48.706;9.258;2023-05-20T10:53:11;97600.41;;;27.72;46.46
21574;BME280;10948;48.706;9.258;2023-05-20T10:55:36;97603.19;;;27.38;46.08
21574;BME280;10948;48.706;9.258;2023-05-20T10:58:02;97602.44;;;27.57;44.57
21574;BME280;10948;48.706;9.258;2023-05-20T11:00:28;97606.25;;;28.80;44.28
21574;BME280;10948;48.706;9.258;2023-05-20T11:02:53;97592.22;;;27.80;43.56
21574;BME280;10948;48.706;9.258;2023-05-20T11:05:19;97594.41;;;25.52;49.08
21574;BME280;10948;48.706;9.258;2023-05-20T11:07:44;97589.56;;;26.04;48.22
21574;BME280;10948;48.706;9.258;2023-05-20T11:10:10;97588.56;;;28.14;46.21
21574;BME280;10948;48.706;9.258;2023-05-20T11:12:35;97581.13;;;28.16;43.45
21574;BME280;10948;48.706;9.258;2023-05-20T11:15:00;97576.69;;;26.35;45.37
21574;BME280;10948;48.706;9.258;2023-05-20T11:17:27;97572.81;;;28.89;43.34
21574;BME280;10948;48.706;9.258;2023-05-20T11:19:52;97571.63;;;28.72;43.84
21574;BME280;10948;48.706;9.258;2023-05-20T11:22:17;97574.69;;;27.05;44.74
21574;BME280;10948;48.706;9.258;2023-05-20T11:24:42;97566.69;;;28.75;44.35
21574;BME280;10948;48.706;9.258;2023-05-20T11:27:07;97570.31;;;28.94;42.58
21574;BME280;10948;48.706;9.258;2023-05-20T11:29:33;97562.03;;;27.26;46.36
21574;BME280;10948;48.706;9.258;2023-05-20T11:31:59;97568.28;;;27.53;46.21
21574;BME280;10948;48.706;9.258;2023-05-20T11:34:24;97566.97;;;27.36;46.20
21574;BME280;10948;48.706;9.258;2023-05-20T11:36:56;97561.66;;;27.42;45.43
21574;BME280;10948;48.706;9.258;2023-05-20T11:39:22;97558.50;;;27.86;44.40
21574;BME280;10948;48.706;9.258;2023-05-20T11:41:48;97552.94;;;28.07;44.41
21574;BME280;10948;48.706;9.258;2023-05-20T11:44:13;97553.84;;;27.34;46.38
21574;BME280;10948;48.706;9.258;2023-05-20T11:46:42;97546.69;;;27.07;46.96
21574;BME280;10948;48.706;9.258;2023-05-20T11:49:07;97548.06;;;25.95;47.80
21574;BME280;10948;48.706;9.258;2023-05-20T11:51:33;97546.41;;;25.52;50.08
21574;BME280;10948;48.706;9.258;2023-05-20T11:54:02;97542.28;;;25.28;49.53
21574;BME280;10948;48.706;9.258;2023-05-20T11:56:28;97545.88;;;25.63;49.52
21574;BME280;10948;48.706;9.258;2023-05-20T11:58:55;97536.94;;;25.14;49.14
21574;BME280;10948;48.706;9.258;2023-05-20T12:01:21;97534.00;;;25.44;49.52
21574;BME280;10948;48.706;9.258;2023-05-20T12:03:46;97538.06;;;25.40;48.91
21574;BME280;10948;48.706;9.258;2023-05-20T12:06:11;97534.22;;;26.40;48.54
21574;BME280;10948;48.706;9.258;2023-05-20T12:08:37;97535.88;;;26.68;48.27
21574;BME280;10948;48.706;9.258;2023-05-20T12:11:02;97530.41;;;26.96;47.38
21574;BME280;10948;48.706;9.258;2023-05-20T12:13:27;97527.56;;;26.57;46.04
21574;BME280;10948;48.706;9.258;2023-05-20T12:15:53;97531.44;;;27.48;44.98
21574;BME280;10948;48.706;9.258;2023-05-20T12:18:18;97527.91;;;27.35;44.77
21574;BME280;10948;48.706;9.258;2023-05-20T12:20:43;97516.03;;;27.70;45.02
21574;BME280;10948;48.706;9.258;2023-05-20T12:23:08;97506.66;;;26.67;46.32
21574;BME280;10948;48.706;9.258;2023-05-20T12:25:34;97505.19;;;25.54;47.38
21574;BME280;10948;48.706;9.258;2023-05-20T12:28:00;97504.75;;;25.51;47.33
21574;BME280;10948;48.706;9.258;2023-05-20T12:30:25;97510.22;;;25.43;48.68
21574;BME280;10948;48.706;9.258;2023-05-20T12:32:51;97508.31;;;25.58;47.85
21574;BME280;10948;48.706;9.258;2023-05-20T12:35:16;97511.66;;;25.24;48.74
21574;BME280;10948;48.706;9.258;2023-05-20T12:37:42;97509.41;;;25.07;50.08
21574;BME280;10948;48.706;9.258;2023-05-20T12:40:08;97512.84;;;25.22;47.85
21574;BME280;10948;48.706;9.258;2023-05-20T12:42:35;97508.81;;;25.26;48.64
21574;BME280;10948;48.706;9.258;2023-05-20T12:45:00;97514.78;;;25.49;49.56
21574;BME280;10948;48.706;9.258;2023-05-20T12:47:26;97519.69;;;26.83;48.38
21574;BME280;10948;48.706;9.258;2023-05-20T12:49:51;97508.81;;;25.68;47.91
21574;BME280;10948;48.706;9.258;2023-05-20T12:52:16;97502.59;;;25.61;48.39
21574;BME280;10948;48.706;9.258;2023-05-20T12:54:42;97501.63;;;26.91;46.92